sensor_id;sensor_type;location;lat;lon;timestamp;P1;P2;P0
82622;PMS5003;72291;55.002;-1.592;2024-03-07T00:01:05;42;39;
82622;PMS5003;72291;55.002;-1.592;2024-03-07T00:03:31;56;45;
82622;PMS5003;72291;55.002;-1.592;2024-03-07T00:05:57;50;44;
82622;PMS5003;72291;55.002;-1.592;2024-03-07T00:08:24;42;39;
82622;PMS5003;72291;55.002;-1.592;2024-03-07T00:10:47;47;42;
82622;PMS5003;72291;55.002;-1.592;2024-03-07T00:13:13;51;47;
82622;PMS5003;72291;55.002;-1.592;2024-03-07T00:18:09;54;47;
82622;PMS5003;72291;55.002;-1.592;2024-03-07T00:20:29;49;44;
82622;PMS5003;72291;55.002;-1.592;2024-03-07T00:22:55;48;46;
82622;PMS5003;72291;55.002;-1.592;2024-03-07T00:25:20;44;42;
82622;PMS5003;72291;55.002;-1.592;2024-03-07T00:27:45;50;43;
82622;PMS5003;72291;55.002;-1.592;2024-03-07T00:30:10;53;46;
82622;PMS5003;72291;55.002;-1.592;2024-03-07T00:32:36;41;38;
82622;PMS5003;72291;55.002;-1.592;2024-03-07T00:35:01;53;46;
82622;PMS5003;72291;55.002;-1.592;2024-03-07T00:37:27;50;43;
82622;PMS5003;72291;55.002;-1.592;2024-03-07T00:39:52;41;38;
82622;PMS5003;72291;55.002;-1.592;2024-03-07T00:42:19;48;40;
82622;PMS5003;72291;55.002;-1.592;2024-03-07T00:44:44;54;48;
82622;PMS5003;72291;55.002;-1.592;2024-03-07T00:47:09;53;47;
82622;PMS5003;72291;55.002;-1.592;2024-03-07T00:49:34;58;44;
82622;PMS5003;72291;55.002;-1.592;2024-03-07T00:52:00;56;43;
82622;PMS5003;72291;55.002;-1.592;2024-03-07T00:54:27;44;42;
82622;PMS5003;72291;55.002;-1.592;2024-03-07T00:56:51;48;44;
82622;PMS5003;72291;55.002;-1.592;2024-03-07T00:59:16;46;42;
82622;PMS5003;72291;55.002;-1.592;2024-03-07T01:01:42;51;49;
82622;PMS5003;72291;55.002;-1.592;2024-03-07T01:04:07;50;43;
82622;PMS5003;72291;55.002;-1.592;2024-03-07T01:08:58;43;37;
82622;PMS5003;72291;55.002;-1.592;2024-03-07T01:11:23;55;46;
82622;PMS5003;72291;55.002;-1.592;2024-03-07T01:13:49;50;43;
82622;PMS5003;72291;55.002;-1.592;2024-03-07T01:16:14;45;41;
82622;PMS5003;72291;55.002;-1.592;2024-03-07T01:18:39;49;39;
82622;PMS5003;72291;55.002;-1.592;2024-03-07T01:21:05;51;44;
82622;PMS5003;72291;55.002;-1.592;2024-03-07T01:23:30;48;42;
82622;PMS5003;72291;55.002;-1.592;2024-03-07T01:25:56;49;42;
82622;PMS5003;72291;55.002;-1.592;2024-03-07T01:28:21;52;41;
82622;PMS5003;72291;55.002;-1.592;2024-03-07T01:30:46;48;41;
82622;PMS5003;72291;55.002;-1.592;2024-03-07T01:33:11;54;49;
82622;PMS5003;72291;55.002;-1.592;2024-03-07T01:35:36;43;39;
82622;PMS5003;72291;55.002;-1.592;2024-03-07T01:38:02;46;42;
82622;PMS5003;72291;55.002;-1.592;2024-03-07T01:40:27;42;39;
82622;PMS5003;72291;55.002;-1.592;2024-03-07T01:42:52;52;45;
82622;PMS5003;72291;55.002;-1.592;2024-03-07T01:45:18;51;42;
82622;PMS5003;72291;55.002;-1.592;2024-03-07T01:47:43;49;42;
82622;PMS5003;72291;55.002;-1.592;2024-03-07T01:50:08;47;44;
82622;PMS5003;72291;55.002;-1.592;2024-03-07T01:52:34;46;39;
82622;PMS5003;72291;55.002;-1.592;2024-03-07T01:54:59;49;40;
82622;PMS5003;72291;55.002;-1.592;2024-03-07T01:59:50;49;43;
82622;PMS5003;72291;55.002;-1.592;2024-03-07T02:02:15;46;41;
82622;PMS5003;72291;55.002;-1.592;2024-03-07T02:07:06;46;43;
82622;PMS5003;72291;55.002;-1.592;2024-03-07T02:09:32;43;42;
82622;PMS5003;72291;55.002;-1.592;2024-03-07T02:11:59;46;37;
82622;PMS5003;72291;55.002;-1.592;2024-03-07T02:14:23;51;43;
82622;PMS5003;72291;55.002;-1.592;2024-03-07T02:16:48;52;46;
82622;PMS5003;72291;55.002;-1.592;2024-03-07T02:19:14;52;48;
82622;PMS5003;72291;55.002;-1.592;2024-03-07T02:21:39;50;41;
82622;PMS5003;72291;55.002;-1.592;2024-03-07T02:24:06;48;41;
82622;PMS5003;72291;55.002;-1.592;2024-03-07T02:26:30;56;45;
82622;PMS5003;72291;55.002;-1.592;2024-03-07T02:28:56;54;43;
82622;PMS5003;72291;55.002;-1.592;2024-03-07T02:31:22;44;42;
82622;PMS5003;72291;55.002;-1.592;2024-03-07T02:33:47;50;45;
82622;PMS5003;72291;55.002;-1.592;2024-03-07T02:36:13;46;44;
82622;PMS5003;72291;55.002;-1.592;2024-03-07T02:38:38;40;36;
82622;PMS5003;72291;55.002;-1.592;2024-03-07T02:41:03;46;40;
82622;PMS5003;72291;55.002;-1.592;2024-03-07T02:43:28;47;43;
82622;PMS5003;72291;55.002;-1.592;2024-03-07T02:45:56;47;44;
82622;PMS5003;72291;55.002;-1.592;2024-03-07T02:48:20;50;44;
82622;PMS5003;72291;55.002;-1.592;2024-03-07T02:50:45;52;41;
82622;PMS5003;72291;55.002;-1.592;2024-03-07T02:53:10;49;45;
82622;PMS5003;72291;55.002;-1.592;2024-03-07T02:55:35;45;43;
82622;PMS5003;72291;55.002;-1.592;2024-03-07T02:58:01;49;42;
82622;PMS5003;72291;55.002;-1.592;2024-03-07T03:00:32;49;46;
82622;PMS5003;72291;55.002;-1.592;2024-03-07T03:02:52;48;44;
82622;PMS5003;72291;55.002;-1.592;2024-03-07T03:05:18;47;43;
82622;PMS5003;72291;55.002;-1.592;2024-03-07T03:07:43;46;40;
82622;PMS5003;72291;55.002;-1.592;2024-03-07T03:10:08;44;43;
82622;PMS5003;72291;55.002;-1.592;2024-03-07T03:12:36;43;42;
82622;PMS5003;72291;55.002;-1.592;2024-03-07T03:14:59;54;42;
82622;PMS5003;72291;55.002;-1.592;2024-03-07T03:17:25;43;41;
82622;PMS5003;72291;55.002;-1.592;2024-03-07T03:19:50;42;39;
82622;PMS5003;72291;55.002;-1.592;2024-03-07T03:22:16;40;38;
82622;PMS5003;72291;55.002;-1.592;2024-03-07T03:24:42;44;42;
82622;PMS5003;72291;55.002;-1.592;2024-03-07T03:27:06;42;37;
82622;PMS5003;72291;55.002;-1.592;2024-03-07T03:29:32;47;41;
82622;PMS5003;72291;55.002;-1.592;2024-03-07T03:31:58;45;41;
82622;PMS5003;72291;55.002;-1.592;2024-03-07T03:34:23;45;42;
82622;PMS5003;72291;55.002;-1.592;2024-03-07T03:36:49;49;43;
82622;PMS5003;72291;55.002;-1.592;2024-03-07T03:39:14;52;44;
82622;PMS5003;72291;55.002;-1.592;2024-03-07T03:41:39;42;39;
82622;PMS5003;72291;55.002;-1.592;2024-03-07T03:44:04;53;46;
82622;PMS5003;72291;55.002;-1.592;2024-03-07T03:46:30;45;38;
82622;PMS5003;72291;55.002;-1.592;2024-03-07T03:48:56;42;39;
82622;PMS5003;72291;55.002;-1.592;2024-03-07T03:51:21;41;35;
82622;PMS5003;72291;55.002;-1.592;2024-03-07T03:53:46;42;38;
82622;PMS5003;72291;55.002;-1.592;2024-03-07T03:56:11;44;41;
82622;PMS5003;72291;55.002;-1.592;2024-03-07T03:58:37;50;44;
82622;PMS5003;72291;55.002;-1.592;2024-03-07T04:01:03;43;41;
82622;PMS5003;72291;55.002;-1.592;2024-03-07T04:08:18;52;41;
82622;PMS5003;72291;55.002;-1.592;2024-03-07T04:10:49;45;40;
82622;PMS5003;72291;55.002;-1.592;2024-03-07T04:13:13;41;36;
82622;PMS5003;72291;55.002;-1.592;2024-03-07T04:15:34;48;46;
82622;PMS5003;72291;55.002;-1.592;2024-03-07T04:18:00;49;44;
82622;PMS5003;72291;55.002;-1.592;2024-03-07T04:20:26;46;43;
82622;PMS5003;72291;55.002;-1.592;2024-03-07T04:22:51;51;45;
82622;PMS5003;72291;55.002;-1.592;2024-03-07T04:25:18;49;42;
82622;PMS5003;72291;55.002;-1.592;2024-03-07T04:27:42;50;45;
82622;PMS5003;72291;55.002;-1.592;2024-03-07T04:32:33;49;46;
82622;PMS5003;72291;55.002;-1.592;2024-03-07T04:35:01;48;43;
82622;PMS5003;72291;55.002;-1.592;2024-03-07T04:37:25;44;41;
82622;PMS5003;72291;55.002;-1.592;2024-03-07T04:39:49;45;41;
82622;PMS5003;72291;55.002;-1.592;2024-03-07T04:42:15;48;44;
82622;PMS5003;72291;55.002;-1.592;2024-03-07T04:44:40;45;41;
82622;PMS5003;72291;55.002;-1.592;2024-03-07T04:47:05;49;45;
82622;PMS5003;72291;55.002;-1.592;2024-03-07T04:49:33;45;39;
82622;PMS5003;72291;55.002;-1.592;2024-03-07T04:51:57;45;40;
82622;PMS5003;72291;55.002;-1.592;2024-03-07T04:54:22;46;43;
82622;PMS5003;72291;55.002;-1.592;2024-03-07T04:56:48;50;43;
82622;PMS5003;72291;55.002;-1.592;2024-03-07T04:59:13;50;46;
82622;PMS5003;72291;55.002;-1.592;2024-03-07T05:01:40;50;45;
82622;PMS5003;72291;55.002;-1.592;2024-03-07T05:04:04;47;43;
82622;PMS5003;72291;55.002;-1.592;2024-03-07T05:06:29;45;40;
82622;PMS5003;72291;55.002;-1.592;2024-03-07T05:08:54;45;41;
82622;PMS5003;72291;55.002;-1.592;2024-03-07T05:11:21;50;45;
82622;PMS5003;72291;55.002;-1.592;2024-03-07T05:13:47;59;51;
82622;PMS5003;72291;55.002;-1.592;2024-03-07T05:16:12;41;39;
82622;PMS5003;72291;55.002;-1.592;2024-03-07T05:18:37;46;41;
82622;PMS5003;72291;55.002;-1.592;2024-03-07T05:21:02;54;45;
82622;PMS5003;72291;55.002;-1.592;2024-03-07T05:23:27;49;46;
82622;PMS5003;72291;55.002;-1.592;2024-03-07T05:25:52;45;44;
82622;PMS5003;72291;55.002;-1.592;2024-03-07T05:28:18;47;45;
82622;PMS5003;72291;55.002;-1.592;2024-03-07T05:30:44;47;43;
82622;PMS5003;72291;55.002;-1.592;2024-03-07T05:33:10;47;44;
82622;PMS5003;72291;55.002;-1.592;2024-03-07T05:35:36;51;46;
82622;PMS5003;72291;55.002;-1.592;2024-03-07T05:38:03;46;41;
82622;PMS5003;72291;55.002;-1.592;2024-03-07T05:40:27;44;39;
82622;PMS5003;72291;55.002;-1.592;2024-03-07T05:42:52;57;53;
82622;PMS5003;72291;55.002;-1.592;2024-03-07T05:45:18;43;42;
82622;PMS5003;72291;55.002;-1.592;2024-03-07T05:47:43;50;46;
82622;PMS5003;72291;55.002;-1.592;2024-03-07T05:50:09;48;43;
82622;PMS5003;72291;55.002;-1.592;2024-03-07T05:52:34;52;49;
82622;PMS5003;72291;55.002;-1.592;2024-03-07T05:54:59;46;40;
82622;PMS5003;72291;55.002;-1.592;2024-03-07T05:57:24;46;39;
82622;PMS5003;72291;55.002;-1.592;2024-03-07T05:59:50;48;45;
82622;PMS5003;72291;55.002;-1.592;2024-03-07T06:02:15;51;46;
82622;PMS5003;72291;55.002;-1.592;2024-03-07T06:04:41;54;47;
82622;PMS5003;72291;55.002;-1.592;2024-03-07T06:07:06;53;50;
82622;PMS5003;72291;55.002;-1.592;2024-03-07T06:09:31;51;47;
82622;PMS5003;72291;55.002;-1.592;2024-03-07T06:12:01;60;55;
82622;PMS5003;72291;55.002;-1.592;2024-03-07T06:14:23;48;44;
82622;PMS5003;72291;55.002;-1.592;2024-03-07T06:16:48;53;51;
82622;PMS5003;72291;55.002;-1.592;2024-03-07T06:19:13;53;51;
82622;PMS5003;72291;55.002;-1.592;2024-03-07T06:21:38;46;44;
82622;PMS5003;72291;55.002;-1.592;2024-03-07T06:24:04;51;49;
82622;PMS5003;72291;55.002;-1.592;2024-03-07T06:26:30;54;50;
82622;PMS5003;72291;55.002;-1.592;2024-03-07T06:28:54;54;47;
82622;PMS5003;72291;55.002;-1.592;2024-03-07T06:31:19;58;54;
82622;PMS5003;72291;55.002;-1.592;2024-03-07T06:33:44;54;52;
82622;PMS5003;72291;55.002;-1.592;2024-03-07T06:36:09;50;47;
82622;PMS5003;72291;55.002;-1.592;2024-03-07T06:38:35;50;44;
82622;PMS5003;72291;55.002;-1.592;2024-03-07T06:41:00;49;46;
82622;PMS5003;72291;55.002;-1.592;2024-03-07T06:43:26;62;57;
82622;PMS5003;72291;55.002;-1.592;2024-03-07T06:45:51;56;51;
82622;PMS5003;72291;55.002;-1.592;2024-03-07T06:48:16;60;51;
82622;PMS5003;72291;55.002;-1.592;2024-03-07T06:50:42;51;48;
82622;PMS5003;72291;55.002;-1.592;2024-03-07T06:55:33;51;47;
82622;PMS5003;72291;55.002;-1.592;2024-03-07T06:57:59;48;44;
82622;PMS5003;72291;55.002;-1.592;2024-03-07T07:00:25;47;44;
82622;PMS5003;72291;55.002;-1.592;2024-03-07T07:02:52;51;44;
82622;PMS5003;72291;55.002;-1.592;2024-03-07T07:05:15;47;46;
82622;PMS5003;72291;55.002;-1.592;2024-03-07T07:07:41;51;44;
82622;PMS5003;72291;55.002;-1.592;2024-03-07T07:10:07;48;45;
82622;PMS5003;72291;55.002;-1.592;2024-03-07T07:12:32;53;48;
82622;PMS5003;72291;55.002;-1.592;2024-03-07T07:14:59;54;49;
82622;PMS5003;72291;55.002;-1.592;2024-03-07T07:17:23;44;42;
82622;PMS5003;72291;55.002;-1.592;2024-03-07T07:19:48;44;41;
82622;PMS5003;72291;55.002;-1.592;2024-03-07T07:22:14;45;42;
82622;PMS5003;72291;55.002;-1.592;2024-03-07T07:24:39;45;44;
82622;PMS5003;72291;55.002;-1.592;2024-03-07T07:27:05;38;34;
82622;PMS5003;72291;55.002;-1.592;2024-03-07T07:29:30;37;36;
82622;PMS5003;72291;55.002;-1.592;2024-03-07T07:31:55;37;34;
82622;PMS5003;72291;55.002;-1.592;2024-03-07T07:34:20;33;32;
82622;PMS5003;72291;55.002;-1.592;2024-03-07T07:36:46;35;33;
82622;PMS5003;72291;55.002;-1.592;2024-03-07T07:39:12;32;31;
82622;PMS5003;72291;55.002;-1.592;2024-03-07T07:41:37;31;29;
82622;PMS5003;72291;55.002;-1.592;2024-03-07T07:44:03;31;31;
82622;PMS5003;72291;55.002;-1.592;2024-03-07T07:46:28;34;31;
82622;PMS5003;72291;55.002;-1.592;2024-03-07T07:48:54;37;36;
82622;PMS5003;72291;55.002;-1.592;2024-03-07T07:51:20;34;31;
82622;PMS5003;72291;55.002;-1.592;2024-03-07T07:53:45;32;31;
82622;PMS5003;72291;55.002;-1.592;2024-03-07T07:56:11;35;33;
82622;PMS5003;72291;55.002;-1.592;2024-03-07T07:58:36;36;34;
82622;PMS5003;72291;55.002;-1.592;2024-03-07T08:01:01;35;31;
82622;PMS5003;72291;55.002;-1.592;2024-03-07T08:03:27;38;37;
82622;PMS5003;72291;55.002;-1.592;2024-03-07T08:05:52;45;40;
82622;PMS5003;72291;55.002;-1.592;2024-03-07T08:08:18;40;36;
82622;PMS5003;72291;55.002;-1.592;2024-03-07T08:10:43;40;40;
82622;PMS5003;72291;55.002;-1.592;2024-03-07T08:13:08;39;38;
82622;PMS5003;72291;55.002;-1.592;2024-03-07T08:15:36;37;35;
82622;PMS5003;72291;55.002;-1.592;2024-03-07T08:22:50;41;39;
82622;PMS5003;72291;55.002;-1.592;2024-03-07T08:27:48;41;39;
82622;PMS5003;72291;55.002;-1.592;2024-03-07T08:30:06;45;41;
82622;PMS5003;72291;55.002;-1.592;2024-03-07T08:32:31;41;40;
82622;PMS5003;72291;55.002;-1.592;2024-03-07T08:34:56;45;43;
82622;PMS5003;72291;55.002;-1.592;2024-03-07T08:37:22;45;42;
82622;PMS5003;72291;55.002;-1.592;2024-03-07T08:39:48;38;35;
82622;PMS5003;72291;55.002;-1.592;2024-03-07T08:42:13;42;38;
82622;PMS5003;72291;55.002;-1.592;2024-03-07T08:44:38;40;37;
82622;PMS5003;72291;55.002;-1.592;2024-03-07T08:47:03;37;36;
82622;PMS5003;72291;55.002;-1.592;2024-03-07T08:49:29;39;37;
82622;PMS5003;72291;55.002;-1.592;2024-03-07T08:51:55;38;36;
82622;PMS5003;72291;55.002;-1.592;2024-03-07T08:54:20;45;45;
82622;PMS5003;72291;55.002;-1.592;2024-03-07T08:56:46;39;37;
82622;PMS5003;72291;55.002;-1.592;2024-03-07T08:59:11;45;39;
82622;PMS5003;72291;55.002;-1.592;2024-03-07T09:01:37;37;35;
82622;PMS5003;72291;55.002;-1.592;2024-03-07T09:04:03;43;40;
82622;PMS5003;72291;55.002;-1.592;2024-03-07T09:06:28;41;37;
82622;PMS5003;72291;55.002;-1.592;2024-03-07T09:08:54;41;39;
82622;PMS5003;72291;55.002;-1.592;2024-03-07T09:11:19;53;43;
82622;PMS5003;72291;55.002;-1.592;2024-03-07T09:13:45;44;39;
82622;PMS5003;72291;55.002;-1.592;2024-03-07T09:16:11;48;46;
82622;PMS5003;72291;55.002;-1.592;2024-03-07T09:18:35;44;40;
82622;PMS5003;72291;55.002;-1.592;2024-03-07T09:21:00;49;44;
82622;PMS5003;72291;55.002;-1.592;2024-03-07T09:23:26;50;46;
82622;PMS5003;72291;55.002;-1.592;2024-03-07T09:25:51;44;40;
82622;PMS5003;72291;55.002;-1.592;2024-03-07T09:28:18;42;39;
82622;PMS5003;72291;55.002;-1.592;2024-03-07T09:30:42;42;38;
82622;PMS5003;72291;55.002;-1.592;2024-03-07T09:33:08;45;43;
82622;PMS5003;72291;55.002;-1.592;2024-03-07T09:35:33;51;46;
82622;PMS5003;72291;55.002;-1.592;2024-03-07T09:37:58;51;46;
82622;PMS5003;72291;55.002;-1.592;2024-03-07T09:40:24;48;43;
82622;PMS5003;72291;55.002;-1.592;2024-03-07T09:42:49;46;39;
82622;PMS5003;72291;55.002;-1.592;2024-03-07T09:45:15;48;46;
82622;PMS5003;72291;55.002;-1.592;2024-03-07T09:47:40;40;39;
82622;PMS5003;72291;55.002;-1.592;2024-03-07T09:50:06;40;40;
82622;PMS5003;72291;55.002;-1.592;2024-03-07T09:52:31;51;43;
82622;PMS5003;72291;55.002;-1.592;2024-03-07T09:54:56;53;47;
82622;PMS5003;72291;55.002;-1.592;2024-03-07T09:57:21;61;55;
82622;PMS5003;72291;55.002;-1.592;2024-03-07T09:59:47;55;49;
82622;PMS5003;72291;55.002;-1.592;2024-03-07T10:02:12;57;50;
82622;PMS5003;72291;55.002;-1.592;2024-03-07T10:04:41;58;53;
82622;PMS5003;72291;55.002;-1.592;2024-03-07T10:07:04;51;46;
82622;PMS5003;72291;55.002;-1.592;2024-03-07T10:09:29;50;48;
82622;PMS5003;72291;55.002;-1.592;2024-03-07T10:11:55;65;60;
82622;PMS5003;72291;55.002;-1.592;2024-03-07T10:14:20;59;55;
82622;PMS5003;72291;55.002;-1.592;2024-03-07T10:16:48;51;47;
82622;PMS5003;72291;55.002;-1.592;2024-03-07T10:19:11;51;48;
82622;PMS5003;72291;55.002;-1.592;2024-03-07T10:21:37;54;49;
82622;PMS5003;72291;55.002;-1.592;2024-03-07T10:24:04;53;50;
82622;PMS5003;72291;55.002;-1.592;2024-03-07T10:26:28;55;49;
82622;PMS5003;72291;55.002;-1.592;2024-03-07T10:28:54;55;48;
82622;PMS5003;72291;55.002;-1.592;2024-03-07T10:33:45;56;48;
82622;PMS5003;72291;55.002;-1.592;2024-03-07T10:36:10;62;54;
82622;PMS5003;72291;55.002;-1.592;2024-03-07T10:38:36;59;53;
82622;PMS5003;72291;55.002;-1.592;2024-03-07T10:41:01;62;57;
82622;PMS5003;72291;55.002;-1.592;2024-03-07T10:43:28;60;54;
82622;PMS5003;72291;55.002;-1.592;2024-03-07T10:45:52;62;54;
82622;PMS5003;72291;55.002;-1.592;2024-03-07T10:48:17;74;64;
82622;PMS5003;72291;55.002;-1.592;2024-03-07T10:50:45;63;60;
82622;PMS5003;72291;55.002;-1.592;2024-03-07T10:53:08;58;55;
82622;PMS5003;72291;55.002;-1.592;2024-03-07T10:55:34;67;59;
82622;PMS5003;72291;55.002;-1.592;2024-03-07T10:58:01;67;61;
82622;PMS5003;72291;55.002;-1.592;2024-03-07T11:00:24;62;55;
82622;PMS5003;72291;55.002;-1.592;2024-03-07T11:02:49;73;61;
82622;PMS5003;72291;55.002;-1.592;2024-03-07T11:05:15;78;64;
82622;PMS5003;72291;55.002;-1.592;2024-03-07T11:07:39;67;55;
82622;PMS5003;72291;55.002;-1.592;2024-03-07T11:10:05;63;59;
82622;PMS5003;72291;55.002;-1.592;2024-03-07T11:12:31;70;56;
82622;PMS5003;72291;55.002;-1.592;2024-03-07T11:14:56;64;55;
82622;PMS5003;72291;55.002;-1.592;2024-03-07T11:17:23;68;61;
82622;PMS5003;72291;55.002;-1.592;2024-03-07T11:19:47;60;55;
82622;PMS5003;72291;55.002;-1.592;2024-03-07T11:24:38;60;55;
82622;PMS5003;72291;55.002;-1.592;2024-03-07T11:27:03;57;53;
82622;PMS5003;72291;55.002;-1.592;2024-03-07T11:29:40;50;47;
82622;PMS5003;72291;55.002;-1.592;2024-03-07T11:31:55;56;51;
82622;PMS5003;72291;55.002;-1.592;2024-03-07T11:34:21;50;46;
82622;PMS5003;72291;55.002;-1.592;2024-03-07T11:36:47;55;51;
82622;PMS5003;72291;55.002;-1.592;2024-03-07T11:41:39;59;54;
82622;PMS5003;72291;55.002;-1.592;2024-03-07T11:44:03;56;51;
82622;PMS5003;72291;55.002;-1.592;2024-03-07T11:46:28;54;49;
82622;PMS5003;72291;55.002;-1.592;2024-03-07T11:48:54;57;51;
82622;PMS5003;72291;55.002;-1.592;2024-03-07T11:51:19;54;49;
82622;PMS5003;72291;55.002;-1.592;2024-03-07T11:53:46;47;43;
82622;PMS5003;72291;55.002;-1.592;2024-03-07T11:58:37;45;41;
82622;PMS5003;72291;55.002;-1.592;2024-03-07T12:01:01;52;46;
82622;PMS5003;72291;55.002;-1.592;2024-03-07T12:03:26;54;47;
82622;PMS5003;72291;55.002;-1.592;2024-03-07T12:05:52;44;41;
82622;PMS5003;72291;55.002;-1.592;2024-03-07T12:08:17;45;42;
82622;PMS5003;72291;55.002;-1.592;2024-03-07T12:10:43;49;43;
82622;PMS5003;72291;55.002;-1.592;2024-03-07T12:13:20;51;48;
82622;PMS5003;72291;55.002;-1.592;2024-03-07T12:15:34;42;38;
82622;PMS5003;72291;55.002;-1.592;2024-03-07T12:18:01;49;45;
82622;PMS5003;72291;55.002;-1.592;2024-03-07T12:20:25;49;42;
82622;PMS5003;72291;55.002;-1.592;2024-03-07T12:22:50;46;42;
82622;PMS5003;72291;55.002;-1.592;2024-03-07T12:25:17;53;45;
82622;PMS5003;72291;55.002;-1.592;2024-03-07T12:27:42;51;46;
82622;PMS5003;72291;55.002;-1.592;2024-03-07T12:30:15;45;40;
82622;PMS5003;72291;55.002;-1.592;2024-03-07T12:32:32;46;39;
82622;PMS5003;72291;55.002;-1.592;2024-03-07T12:34:58;57;47;
82622;PMS5003;72291;55.002;-1.592;2024-03-07T12:37:29;46;43;
82622;PMS5003;72291;55.002;-1.592;2024-03-07T12:39:49;49;45;
82622;PMS5003;72291;55.002;-1.592;2024-03-07T12:42:16;47;45;
82622;PMS5003;72291;55.002;-1.592;2024-03-07T12:44:40;42;41;
82622;PMS5003;72291;55.002;-1.592;2024-03-07T12:47:06;45;43;
82622;PMS5003;72291;55.002;-1.592;2024-03-07T12:49:31;51;45;
82622;PMS5003;72291;55.002;-1.592;2024-03-07T12:51:56;47;43;
82622;PMS5003;72291;55.002;-1.592;2024-03-07T12:54:22;42;40;
82622;PMS5003;72291;55.002;-1.592;2024-03-07T12:56:47;46;44;
82622;PMS5003;72291;55.002;-1.592;2024-03-07T12:59:12;47;44;
82622;PMS5003;72291;55.002;-1.592;2024-03-07T13:01:38;42;37;
82622;PMS5003;72291;55.002;-1.592;2024-03-07T13:04:03;50;40;
82622;PMS5003;72291;55.002;-1.592;2024-03-07T13:06:30;41;39;
82622;PMS5003;72291;55.002;-1.592;2024-03-07T13:08:55;45;42;
82622;PMS5003;72291;55.002;-1.592;2024-03-07T13:11:20;48;45;
82622;PMS5003;72291;55.002;-1.592;2024-03-07T13:13:46;48;43;
82622;PMS5003;72291;55.002;-1.592;2024-03-07T13:16:11;39;37;
82622;PMS5003;72291;55.002;-1.592;2024-03-07T13:18:37;49;44;
82622;PMS5003;72291;55.002;-1.592;2024-03-07T13:21:02;40;38;
82622;PMS5003;72291;55.002;-1.592;2024-03-07T13:23:34;51;46;
82622;PMS5003;72291;55.002;-1.592;2024-03-07T13:25:53;51;46;
82622;PMS5003;72291;55.002;-1.592;2024-03-07T13:28:18;50;43;
82622;PMS5003;72291;55.002;-1.592;2024-03-07T13:30:44;49;41;
82622;PMS5003;72291;55.002;-1.592;2024-03-07T13:33:09;49;44;
82622;PMS5003;72291;55.002;-1.592;2024-03-07T13:35:37;58;51;
82622;PMS5003;72291;55.002;-1.592;2024-03-07T13:38:00;54;45;
82622;PMS5003;72291;55.002;-1.592;2024-03-07T13:40:26;52;46;
82622;PMS5003;72291;55.002;-1.592;2024-03-07T13:42:52;54;51;
82622;PMS5003;72291;55.002;-1.592;2024-03-07T13:45:16;45;40;
82622;PMS5003;72291;55.002;-1.592;2024-03-07T13:47:41;50;47;
82622;PMS5003;72291;55.002;-1.592;2024-03-07T13:50:07;57;49;
82622;PMS5003;72291;55.002;-1.592;2024-03-07T13:52:32;46;44;
82622;PMS5003;72291;55.002;-1.592;2024-03-07T13:54:58;43;40;
82622;PMS5003;72291;55.002;-1.592;2024-03-07T13:57:26;48;44;
82622;PMS5003;72291;55.002;-1.592;2024-03-07T13:59:54;48;44;
82622;PMS5003;72291;55.002;-1.592;2024-03-07T14:02:18;43;37;
82622;PMS5003;72291;55.002;-1.592;2024-03-07T14:07:12;46;45;
82622;PMS5003;72291;55.002;-1.592;2024-03-07T14:14:34;50;47;
82622;PMS5003;72291;55.002;-1.592;2024-03-07T14:16:52;51;48;
82622;PMS5003;72291;55.002;-1.592;2024-03-07T14:21:46;46;42;
82622;PMS5003;72291;55.002;-1.592;2024-03-07T14:24:07;51;43;
82622;PMS5003;72291;55.002;-1.592;2024-03-07T14:31:20;42;40;
82622;PMS5003;72291;55.002;-1.592;2024-03-07T14:33:50;45;41;
82622;PMS5003;72291;55.002;-1.592;2024-03-07T14:36:12;39;37;
82622;PMS5003;72291;55.002;-1.592;2024-03-07T14:38:46;42;37;
82622;PMS5003;72291;55.002;-1.592;2024-03-07T14:41:02;46;42;
82622;PMS5003;72291;55.002;-1.592;2024-03-07T14:43:33;35;32;
82622;PMS5003;72291;55.002;-1.592;2024-03-07T14:45:53;43;37;
82622;PMS5003;72291;55.002;-1.592;2024-03-07T14:48:19;50;43;
82622;PMS5003;72291;55.002;-1.592;2024-03-07T14:50:44;39;36;
82622;PMS5003;72291;55.002;-1.592;2024-03-07T14:53:10;40;38;
82622;PMS5003;72291;55.002;-1.592;2024-03-07T14:55:37;39;37;
82622;PMS5003;72291;55.002;-1.592;2024-03-07T14:58:01;46;43;
82622;PMS5003;72291;55.002;-1.592;2024-03-07T15:00:27;47;40;
82622;PMS5003;72291;55.002;-1.592;2024-03-07T15:02:54;39;37;
82622;PMS5003;72291;55.002;-1.592;2024-03-07T15:05:17;38;33;
82622;PMS5003;72291;55.002;-1.592;2024-03-07T15:07:42;43;37;
82622;PMS5003;72291;55.002;-1.592;2024-03-07T15:10:09;39;34;
82622;PMS5003;72291;55.002;-1.592;2024-03-07T15:12:33;41;38;
82622;PMS5003;72291;55.002;-1.592;2024-03-07T15:14:58;37;34;
82622;PMS5003;72291;55.002;-1.592;2024-03-07T15:17:24;41;37;
82622;PMS5003;72291;55.002;-1.592;2024-03-07T15:19:50;37;34;
82622;PMS5003;72291;55.002;-1.592;2024-03-07T15:22:14;41;37;
82622;PMS5003;72291;55.002;-1.592;2024-03-07T15:24:39;38;34;
82622;PMS5003;72291;55.002;-1.592;2024-03-07T15:27:05;40;38;
82622;PMS5003;72291;55.002;-1.592;2024-03-07T15:29:31;38;35;
82622;PMS5003;72291;55.002;-1.592;2024-03-07T15:31:57;44;35;
82622;PMS5003;72291;55.002;-1.592;2024-03-07T15:34:23;38;33;
82622;PMS5003;72291;55.002;-1.592;2024-03-07T15:36:48;36;33;
82622;PMS5003;72291;55.002;-1.592;2024-03-07T15:39:13;37;34;
82622;PMS5003;72291;55.002;-1.592;2024-03-07T15:41:38;31;29;
82622;PMS5003;72291;55.002;-1.592;2024-03-07T15:44:05;36;33;
82622;PMS5003;72291;55.002;-1.592;2024-03-07T15:46:29;35;34;
82622;PMS5003;72291;55.002;-1.592;2024-03-07T15:48:54;40;31;
82622;PMS5003;72291;55.002;-1.592;2024-03-07T15:51:20;33;28;
82622;PMS5003;72291;55.002;-1.592;2024-03-07T15:53:46;40;34;
82622;PMS5003;72291;55.002;-1.592;2024-03-07T15:56:13;30;27;
82622;PMS5003;72291;55.002;-1.592;2024-03-07T15:58:37;29;27;
82622;PMS5003;72291;55.002;-1.592;2024-03-07T16:01:05;30;28;
82622;PMS5003;72291;55.002;-1.592;2024-03-07T16:03:28;29;28;
82622;PMS5003;72291;55.002;-1.592;2024-03-07T16:05:54;30;26;
82622;PMS5003;72291;55.002;-1.592;2024-03-07T16:08:19;24;22;
82622;PMS5003;72291;55.002;-1.592;2024-03-07T16:10:44;25;25;
82622;PMS5003;72291;55.002;-1.592;2024-03-07T16:13:10;29;26;
82622;PMS5003;72291;55.002;-1.592;2024-03-07T16:15:35;28;27;
82622;PMS5003;72291;55.002;-1.592;2024-03-07T16:18:00;28;25;
82622;PMS5003;72291;55.002;-1.592;2024-03-07T16:20:27;26;24;
82622;PMS5003;72291;55.002;-1.592;2024-03-07T16:22:52;26;24;
82622;PMS5003;72291;55.002;-1.592;2024-03-07T16:25:17;22;21;
82622;PMS5003;72291;55.002;-1.592;2024-03-07T16:27:42;25;20;
82622;PMS5003;72291;55.002;-1.592;2024-03-07T16:30:08;24;22;
82622;PMS5003;72291;55.002;-1.592;2024-03-07T16:37:24;27;26;
82622;PMS5003;72291;55.002;-1.592;2024-03-07T16:39:49;27;24;
82622;PMS5003;72291;55.002;-1.592;2024-03-07T16:42:17;22;21;
82622;PMS5003;72291;55.002;-1.592;2024-03-07T16:44:41;22;22;